sensor_id;sensor_type;location;lat;lon;timestamp;P1;durP1;ratioP1;P2;durP2;ratioP2
55076;SDS011;40971;44.702;11.030;2022-08-01T00:00:19;6.30;;;2.90;;
55076;SDS011;40971;44.702;11.030;2022-08-01T00:02:45;7.28;;;3.33;;
55076;SDS011;40971;44.702;11.030;2022-08-01T00:05:10;13.98;;;3.72;;
55076;SDS011;40971;44.702;11.030;2022-08-01T00:07:36;9.88;;;3.40;;
55076;SDS011;40971;44.702;11.030;2022-08-01T00:10:02;7.30;;;2.95;;
55076;SDS011;40971;44.702;11.030;2022-08-01T00:12:29;7.93;;;2.85;;
55076;SDS011;40971;44.702;11.030;2022-08-01T00:14:55;6.10;;;2.95;;
55076;SDS011;40971;44.702;11.030;2022-08-01T00:17:20;14.85;;;4.03;;
55076;SDS011;40971;44.702;11.030;2022-08-01T00:19:45;20.58;;;4.10;;
55076;SDS011;40971;44.702;11.030;2022-08-01T00:22:11;13.52;;;5.07;;
55076;SDS011;40971;44.702;11.030;2022-08-01T00:24:36;13.43;;;4.55;;
55076;SDS011;40971;44.702;11.030;2022-08-01T00:27:02;8.07;;;3.30;;
55076;SDS011;40971;44.702;11.030;2022-08-01T00:29:27;8.00;;;3.30;;
55076;SDS011;40971;44.702;11.030;2022-08-01T00:31:53;8.73;;;3.35;;
55076;SDS011;40971;44.702;11.030;2022-08-01T00:34:18;8.63;;;3.10;;
55076;SDS011;40971;44.702;11.030;2022-08-01T00:36:45;9.07;;;4.00;;
55076;SDS011;40971;44.702;11.030;2022-08-01T00:39:11;21.45;;;4.68;;
55076;SDS011;40971;44.702;11.030;2022-08-01T00:41:37;20.40;;;4.90;;
55076;SDS011;40971;44.702;11.030;2022-08-01T00:44:05;18.83;;;5.20;;
55076;SDS011;40971;44.702;11.030;2022-08-01T00:46:31;20.48;;;5.35;;
55076;SDS011;40971;44.702;11.030;2022-08-01T00:48:58;16.83;;;3.78;;
55076;SDS011;40971;44.702;11.030;2022-08-01T00:51:24;8.00;;;2.63;;
55076;SDS011;40971;44.702;11.030;2022-08-01T00:53:51;14.63;;;2.42;;
55076;SDS011;40971;44.702;11.030;2022-08-01T00:56:17;10.13;;;2.97;;
55076;SDS011;40971;44.702;11.030;2022-08-01T00:58:43;6.88;;;2.90;;
55076;SDS011;40971;44.702;11.030;2022-08-01T01:03:55;14.73;;;4.35;;
55076;SDS011;40971;44.702;11.030;2022-08-01T01:17:55;7.82;;;2.97;;
55076;SDS011;40971;44.702;11.030;2022-08-01T01:20:49;7.13;;;2.97;;
55076;SDS011;40971;44.702;11.030;2022-08-01T01:29:08;8.88;;;3.75;;
55076;SDS011;40971;44.702;11.030;2022-08-01T01:31:46;9.20;;;3.80;;
55076;SDS011;40971;44.702;11.030;2022-08-01T01:34:15;6.55;;;2.78;;
55076;SDS011;40971;44.702;11.030;2022-08-01T01:36:42;9.18;;;3.55;;
55076;SDS011;40971;44.702;11.030;2022-08-01T01:39:11;8.35;;;3.63;;
55076;SDS011;40971;44.702;11.030;2022-08-01T01:41:39;7.93;;;3.80;;
55076;SDS011;40971;44.702;11.030;2022-08-01T01:44:06;11.27;;;3.92;;
55076;SDS011;40971;44.702;11.030;2022-08-01T01:46:32;12.85;;;4.35;;
55076;SDS011;40971;44.702;11.030;2022-08-01T01:48:58;8.48;;;3.88;;
55076;SDS011;40971;44.702;11.030;2022-08-01T01:51:26;14.55;;;3.83;;
55076;SDS011;40971;44.702;11.030;2022-08-01T01:53:53;9.60;;;4.07;;
55076;SDS011;40971;44.702;11.030;2022-08-01T01:56:20;9.50;;;3.95;;
55076;SDS011;40971;44.702;11.030;2022-08-01T01:58:52;9.70;;;4.80;;
55076;SDS011;40971;44.702;11.030;2022-08-01T02:01:20;9.05;;;4.28;;
55076;SDS011;40971;44.702;11.030;2022-08-01T02:03:51;8.40;;;4.00;;
55076;SDS011;40971;44.702;11.030;2022-08-01T02:06:18;11.02;;;4.70;;
55076;SDS011;40971;44.702;11.030;2022-08-01T02:08:45;8.32;;;4.35;;
55076;SDS011;40971;44.702;11.030;2022-08-01T02:11:12;7.93;;;3.70;;
55076;SDS011;40971;44.702;11.030;2022-08-01T02:13:44;7.00;;;3.58;;
55076;SDS011;40971;44.702;11.030;2022-08-01T02:16:39;6.70;;;3.58;;
55076;SDS011;40971;44.702;11.030;2022-08-01T02:19:06;7.03;;;3.90;;
55076;SDS011;40971;44.702;11.030;2022-08-01T02:21:34;8.23;;;4.43;;
55076;SDS011;40971;44.702;11.030;2022-08-01T02:24:09;13.30;;;5.53;;
55076;SDS011;40971;44.702;11.030;2022-08-01T02:26:49;12.68;;;5.85;;
55076;SDS011;40971;44.702;11.030;2022-08-01T02:29:30;7.50;;;3.97;;
55076;SDS011;40971;44.702;11.030;2022-08-01T02:32:01;11.07;;;5.70;;
55076;SDS011;40971;44.702;11.030;2022-08-01T02:34:29;10.40;;;5.20;;
55076;SDS011;40971;44.702;11.030;2022-08-01T02:36:58;9.05;;;5.20;;
55076;SDS011;40971;44.702;11.030;2022-08-01T02:39:27;9.02;;;5.43;;
55076;SDS011;40971;44.702;11.030;2022-08-01T02:41:55;11.13;;;5.47;;
55076;SDS011;40971;44.702;11.030;2022-08-01T02:44:28;13.38;;;5.18;;
55076;SDS011;40971;44.702;11.030;2022-08-01T02:46:56;9.63;;;5.53;;
55076;SDS011;40971;44.702;11.030;2022-08-01T02:49:27;13.93;;;5.47;;
55076;SDS011;40971;44.702;11.030;2022-08-01T02:51:59;10.52;;;4.50;;
55076;SDS011;40971;44.702;11.030;2022-08-01T02:54:26;9.68;;;5.25;;
55076;SDS011;40971;44.702;11.030;2022-08-01T02:56:54;11.48;;;5.10;;
55076;SDS011;40971;44.702;11.030;2022-08-01T02:59:22;11.85;;;5.50;;
55076;SDS011;40971;44.702;11.030;2022-08-01T03:01:51;8.57;;;4.18;;
55076;SDS011;40971;44.702;11.030;2022-08-01T03:04:20;12.10;;;5.45;;
55076;SDS011;40971;44.702;11.030;2022-08-01T03:06:47;11.45;;;5.65;;
55076;SDS011;40971;44.702;11.030;2022-08-01T03:09:13;16.95;;;6.53;;
55076;SDS011;40971;44.702;11.030;2022-08-01T03:11:39;11.23;;;6.45;;
55076;SDS011;40971;44.702;11.030;2022-08-01T03:14:07;10.90;;;6.68;;
55076;SDS011;40971;44.702;11.030;2022-08-01T03:16:35;11.32;;;6.65;;
55076;SDS011;40971;44.702;11.030;2022-08-01T03:19:03;11.65;;;6.80;;
55076;SDS011;40971;44.702;11.030;2022-08-01T03:21:32;11.73;;;6.72;;
55076;SDS011;40971;44.702;11.030;2022-08-01T03:23:59;11.70;;;6.80;;
55076;SDS011;40971;44.702;11.030;2022-08-01T03:26:26;11.23;;;6.38;;
55076;SDS011;40971;44.702;11.030;2022-08-01T03:28:56;11.50;;;5.95;;
55076;SDS011;40971;44.702;11.030;2022-08-01T03:31:40;9.75;;;6.18;;
55076;SDS011;40971;44.702;11.030;2022-08-01T03:34:09;10.13;;;6.13;;
55076;SDS011;40971;44.702;11.030;2022-08-01T03:36:38;12.13;;;6.82;;
55076;SDS011;40971;44.702;11.030;2022-08-01T03:39:29;11.18;;;6.72;;
55076;SDS011;40971;44.702;11.030;2022-08-01T03:42:05;11.45;;;5.90;;
55076;SDS011;40971;44.702;11.030;2022-08-01T03:44:37;28.02;;;7.82;;
55076;SDS011;40971;44.702;11.030;2022-08-01T03:47:08;43.85;;;9.07;;
55076;SDS011;40971;44.702;11.030;2022-08-01T03:49:44;15.13;;;6.53;;
55076;SDS011;40971;44.702;11.030;2022-08-01T03:52:12;11.75;;;6.35;;
55076;SDS011;40971;44.702;11.030;2022-08-01T03:54:43;10.80;;;6.57;;
55076;SDS011;40971;44.702;11.030;2022-08-01T03:57:12;17.05;;;7.10;;
55076;SDS011;40971;44.702;11.030;2022-08-01T03:59:39;18.17;;;7.13;;
55076;SDS011;40971;44.702;11.030;2022-08-01T04:02:05;15.32;;;6.07;;
55076;SDS011;40971;44.702;11.030;2022-08-01T04:04:31;15.50;;;7.05;;
55076;SDS011;40971;44.702;11.030;2022-08-01T04:06:58;11.40;;;7.07;;
55076;SDS011;40971;44.702;11.030;2022-08-01T04:09:29;21.00;;;7.95;;
55076;SDS011;40971;44.702;11.030;2022-08-01T04:11:56;18.38;;;7.28;;
55076;SDS011;40971;44.702;11.030;2022-08-01T04:14:21;11.35;;;7.55;;
55076;SDS011;40971;44.702;11.030;2022-08-01T04:16:48;18.60;;;7.72;;
55076;SDS011;40971;44.702;11.030;2022-08-01T04:19:13;28.10;;;8.38;;
55076;SDS011;40971;44.702;11.030;2022-08-01T04:21:39;21.02;;;8.57;;
55076;SDS011;40971;44.702;11.030;2022-08-01T04:24:06;23.17;;;8.25;;
55076;SDS011;40971;44.702;11.030;2022-08-01T04:26:36;14.27;;;7.78;;
55076;SDS011;40971;44.702;11.030;2022-08-01T04:29:03;14.55;;;7.43;;
55076;SDS011;40971;44.702;11.030;2022-08-01T04:31:32;11.15;;;7.30;;
55076;SDS011;40971;44.702;11.030;2022-08-01T04:34:16;16.00;;;7.15;;
55076;SDS011;40971;44.702;11.030;2022-08-01T04:36:45;15.45;;;7.75;;
55076;SDS011;40971;44.702;11.030;2022-08-01T04:39:12;11.60;;;7.35;;
55076;SDS011;40971;44.702;11.030;2022-08-01T04:41:39;15.23;;;8.23;;
55076;SDS011;40971;44.702;11.030;2022-08-01T04:44:06;13.57;;;7.60;;
55076;SDS011;40971;44.702;11.030;2022-08-01T04:46:31;14.60;;;7.20;;
55076;SDS011;40971;44.702;11.030;2022-08-01T04:48:59;10.45;;;5.93;;
55076;SDS011;40971;44.702;11.030;2022-08-01T04:51:49;18.65;;;7.15;;
55076;SDS011;40971;44.702;11.030;2022-08-01T04:54:23;16.05;;;7.28;;
55076;SDS011;40971;44.702;11.030;2022-08-01T04:56:50;15.10;;;7.03;;
55076;SDS011;40971;44.702;11.030;2022-08-01T04:59:16;11.43;;;6.80;;
55076;SDS011;40971;44.702;11.030;2022-08-01T05:02:16;17.77;;;7.90;;
55076;SDS011;40971;44.702;11.030;2022-08-01T05:04:43;17.27;;;7.43;;
55076;SDS011;40971;44.702;11.030;2022-08-01T05:07:11;19.25;;;7.05;;
55076;SDS011;40971;44.702;11.030;2022-08-01T05:09:37;15.98;;;7.57;;
55076;SDS011;40971;44.702;11.030;2022-08-01T05:12:06;19.17;;;6.78;;
55076;SDS011;40971;44.702;11.030;2022-08-01T05:14:33;11.80;;;6.90;;
55076;SDS011;40971;44.702;11.030;2022-08-01T05:17:00;14.63;;;7.82;;
55076;SDS011;40971;44.702;11.030;2022-08-01T05:19:28;13.05;;;7.03;;
55076;SDS011;40971;44.702;11.030;2022-08-01T05:21:55;11.30;;;6.53;;
55076;SDS011;40971;44.702;11.030;2022-08-01T05:24:21;12.40;;;5.93;;
55076;SDS011;40971;44.702;11.030;2022-08-01T05:26:47;20.48;;;6.82;;
55076;SDS011;40971;44.702;11.030;2022-08-01T05:29:14;11.75;;;6.72;;
55076;SDS011;40971;44.702;11.030;2022-08-01T05:31:40;13.52;;;6.47;;
55076;SDS011;40971;44.702;11.030;2022-08-01T05:34:05;12.73;;;6.13;;
55076;SDS011;40971;44.702;11.030;2022-08-01T05:36:31;14.88;;;6.20;;
55076;SDS011;40971;44.702;11.030;2022-08-01T05:38:56;12.82;;;5.85;;
55076;SDS011;40971;44.702;11.030;2022-08-01T05:41:22;13.20;;;5.43;;
55076;SDS011;40971;44.702;11.030;2022-08-01T05:43:47;11.52;;;4.90;;
55076;SDS011;40971;44.702;11.030;2022-08-01T05:46:13;14.13;;;4.65;;
55076;SDS011;40971;44.702;11.030;2022-08-01T05:48:38;11.40;;;4.28;;
55076;SDS011;40971;44.702;11.030;2022-08-01T05:51:04;9.70;;;4.53;;
55076;SDS011;40971;44.702;11.030;2022-08-01T05:53:29;16.58;;;5.35;;
55076;SDS011;40971;44.702;11.030;2022-08-01T05:55:55;11.95;;;5.07;;
55076;SDS011;40971;44.702;11.030;2022-08-01T05:58:21;13.98;;;4.35;;
55076;SDS011;40971;44.702;11.030;2022-08-01T06:00:47;14.77;;;4.63;;
55076;SDS011;40971;44.702;11.030;2022-08-01T06:03:12;10.20;;;4.22;;
55076;SDS011;40971;44.702;11.030;2022-08-01T06:05:39;16.25;;;4.28;;
55076;SDS011;40971;44.702;11.030;2022-08-01T06:08:05;6.78;;;3.15;;
55076;SDS011;40971;44.702;11.030;2022-08-01T06:10:30;8.20;;;3.33;;
55076;SDS011;40971;44.702;11.030;2022-08-01T06:12:56;11.80;;;3.53;;
55076;SDS011;40971;44.702;11.030;2022-08-01T06:15:21;9.32;;;3.72;;
55076;SDS011;40971;44.702;11.030;2022-08-01T06:17:47;24.77;;;4.75;;
55076;SDS011;40971;44.702;11.030;2022-08-01T06:20:12;12.65;;;4.82;;
55076;SDS011;40971;44.702;11.030;2022-08-01T06:22:37;12.73;;;5.75;;
55076;SDS011;40971;44.702;11.030;2022-08-01T06:25:03;12.80;;;5.45;;
55076;SDS011;40971;44.702;11.030;2022-08-01T06:27:29;15.32;;;6.05;;
55076;SDS011;40971;44.702;11.030;2022-08-01T06:29:55;13.40;;;6.68;;
55076;SDS011;40971;44.702;11.030;2022-08-01T06:32:21;12.15;;;5.93;;
55076;SDS011;40971;44.702;11.030;2022-08-01T06:34:51;13.18;;;6.30;;
55076;SDS011;40971;44.702;11.030;2022-08-01T06:37:17;14.13;;;6.85;;
55076;SDS011;40971;44.702;11.030;2022-08-01T06:39:43;14.68;;;7.20;;
55076;SDS011;40971;44.702;11.030;2022-08-01T06:42:08;12.55;;;7.60;;
55076;SDS011;40971;44.702;11.030;2022-08-01T06:44:34;13.77;;;6.93;;
55076;SDS011;40971;44.702;11.030;2022-08-01T06:47:00;18.35;;;6.97;;
55076;SDS011;40971;44.702;11.030;2022-08-01T06:49:26;16.13;;;6.78;;
55076;SDS011;40971;44.702;11.030;2022-08-01T06:51:51;15.35;;;6.20;;
55076;SDS011;40971;44.702;11.030;2022-08-01T06:54:17;14.13;;;6.03;;
55076;SDS011;40971;44.702;11.030;2022-08-01T06:56:43;11.35;;;5.68;;
55076;SDS011;40971;44.702;11.030;2022-08-01T06:59:08;23.35;;;5.60;;
55076;SDS011;40971;44.702;11.030;2022-08-01T07:01:34;11.65;;;5.90;;
55076;SDS011;40971;44.702;11.030;2022-08-01T07:03:59;10.43;;;5.15;;
55076;SDS011;40971;44.702;11.030;2022-08-01T07:06:25;9.82;;;4.75;;
55076;SDS011;40971;44.702;11.030;2022-08-01T07:08:54;12.60;;;4.93;;
55076;SDS011;40971;44.702;11.030;2022-08-01T07:11:20;11.32;;;4.78;;
55076;SDS011;40971;44.702;11.030;2022-08-01T07:13:46;15.18;;;4.90;;
55076;SDS011;40971;44.702;11.030;2022-08-01T07:16:13;9.10;;;4.18;;
55076;SDS011;40971;44.702;11.030;2022-08-01T07:18:38;8.98;;;3.30;;
55076;SDS011;40971;44.702;11.030;2022-08-01T07:21:04;9.63;;;3.90;;
55076;SDS011;40971;44.702;11.030;2022-08-01T07:23:30;8.43;;;3.88;;
55076;SDS011;40971;44.702;11.030;2022-08-01T07:25:55;5.75;;;2.72;;
55076;SDS011;40971;44.702;11.030;2022-08-01T07:28:21;6.90;;;2.70;;
55076;SDS011;40971;44.702;11.030;2022-08-01T07:30:46;11.25;;;2.92;;
55076;SDS011;40971;44.702;11.030;2022-08-01T07:33:12;9.88;;;2.92;;
55076;SDS011;40971;44.702;11.030;2022-08-01T07:35:37;7.50;;;3.22;;
55076;SDS011;40971;44.702;11.030;2022-08-01T07:38:04;9.73;;;3.25;;
55076;SDS011;40971;44.702;11.030;2022-08-01T07:40:31;5.45;;;2.60;;
55076;SDS011;40971;44.702;11.030;2022-08-01T07:42:57;8.05;;;2.40;;
55076;SDS011;40971;44.702;11.030;2022-08-01T07:45:22;5.38;;;2.17;;
55076;SDS011;40971;44.702;11.030;2022-08-01T07:47:48;6.85;;;2.33;;
55076;SDS011;40971;44.702;11.030;2022-08-01T07:50:14;6.20;;;2.47;;
55076;SDS011;40971;44.702;11.030;2022-08-01T07:52:40;8.65;;;2.33;;
55076;SDS011;40971;44.702;11.030;2022-08-01T07:55:06;5.50;;;2.17;;
55076;SDS011;40971;44.702;11.030;2022-08-01T07:57:32;7.45;;;2.33;;
55076;SDS011;40971;44.702;11.030;2022-08-01T07:59:57;4.20;;;1.90;;
55076;SDS011;40971;44.702;11.030;2022-08-01T08:02:23;6.78;;;1.83;;
55076;SDS011;40971;44.702;11.030;2022-08-01T08:04:48;4.55;;;1.60;;
55076;SDS011;40971;44.702;11.030;2022-08-01T08:07:14;4.28;;;1.63;;
55076;SDS011;40971;44.702;11.030;2022-08-01T08:09:39;6.97;;;1.98;;
55076;SDS011;40971;44.702;11.030;2022-08-01T08:12:05;4.93;;;1.60;;
55076;SDS011;40971;44.702;11.030;2022-08-01T08:14:31;4.65;;;1.65;;
55076;SDS011;40971;44.702;11.030;2022-08-01T08:16:56;4.63;;;1.48;;
55076;SDS011;40971;44.702;11.030;2022-08-01T08:19:22;4.32;;;1.52;;
55076;SDS011;40971;44.702;11.030;2022-08-01T08:21:47;4.38;;;1.52;;
55076;SDS011;40971;44.702;11.030;2022-08-01T08:24:12;8.93;;;1.73;;
55076;SDS011;40971;44.702;11.030;2022-08-01T08:26:52;6.85;;;1.67;;
55076;SDS011;40971;44.702;11.030;2022-08-01T08:29:21;4.03;;;1.33;;
55076;SDS011;40971;44.702;11.030;2022-08-01T08:31:48;4.45;;;1.45;;
55076;SDS011;40971;44.702;11.030;2022-08-01T08:34:14;10.45;;;1.73;;
55076;SDS011;40971;44.702;11.030;2022-08-01T08:36:40;5.32;;;1.42;;
55076;SDS011;40971;44.702;11.030;2022-08-01T08:39:05;4.88;;;1.85;;
55076;SDS011;40971;44.702;11.030;2022-08-01T08:41:32;12.45;;;1.52;;
55076;SDS011;40971;44.702;11.030;2022-08-01T08:44:01;5.68;;;1.75;;
55076;SDS011;40971;44.702;11.030;2022-08-01T08:46:27;8.00;;;2.00;;
55076;SDS011;40971;44.702;11.030;2022-08-01T08:48:54;4.28;;;1.50;;
55076;SDS011;40971;44.702;11.030;2022-08-01T08:51:21;4.25;;;1.60;;
55076;SDS011;40971;44.702;11.030;2022-08-01T08:53:50;6.32;;;1.73;;
55076;SDS011;40971;44.702;11.030;2022-08-01T08:56:19;5.28;;;1.60;;
55076;SDS011;40971;44.702;11.030;2022-08-01T08:58:46;9.77;;;1.73;;
55076;SDS011;40971;44.702;11.030;2022-08-01T09:01:12;9.43;;;1.40;;
55076;SDS011;40971;44.702;11.030;2022-08-01T09:03:38;5.80;;;1.40;;
55076;SDS011;40971;44.702;11.030;2022-08-01T09:06:04;16.55;;;2.30;;
55076;SDS011;40971;44.702;11.030;2022-08-01T09:08:30;8.93;;;1.60;;
55076;SDS011;40971;44.702;11.030;2022-08-01T09:10:56;7.63;;;1.70;;
55076;SDS011;40971;44.702;11.030;2022-08-01T09:13:21;5.53;;;1.60;;
55076;SDS011;40971;44.702;11.030;2022-08-01T09:15:48;4.05;;;1.60;;
55076;SDS011;40971;44.702;11.030;2022-08-01T09:18:28;3.38;;;1.40;;
55076;SDS011;40971;44.702;11.030;2022-08-01T09:23:48;6.75;;;1.80;;
55076;SDS011;40971;44.702;11.030;2022-08-01T09:26:18;4.85;;;1.67;;
55076;SDS011;40971;44.702;11.030;2022-08-01T09:28:45;5.85;;;1.75;;
55076;SDS011;40971;44.702;11.030;2022-08-01T09:31:13;4.15;;;1.35;;
55076;SDS011;40971;44.702;11.030;2022-08-01T09:33:49;7.22;;;1.35;;
55076;SDS011;40971;44.702;11.030;2022-08-01T09:36:27;6.53;;;1.60;;
55076;SDS011;40971;44.702;11.030;2022-08-01T09:39:13;4.85;;;1.55;;
55076;SDS011;40971;44.702;11.030;2022-08-01T09:41:39;4.57;;;1.50;;
55076;SDS011;40971;44.702;11.030;2022-08-01T09:44:05;5.97;;;1.42;;
55076;SDS011;40971;44.702;11.030;2022-08-01T09:46:31;8.48;;;1.80;;
55076;SDS011;40971;44.702;11.030;2022-08-01T09:49:04;16.00;;;1.88;;
55076;SDS011;40971;44.702;11.030;2022-08-01T09:51:34;3.60;;;1.30;;
55076;SDS011;40971;44.702;11.030;2022-08-01T09:54:02;4.68;;;1.75;;
55076;SDS011;40971;44.702;11.030;2022-08-01T09:56:37;9.27;;;1.50;;
55076;SDS011;40971;44.702;11.030;2022-08-01T09:59:02;4.72;;;1.33;;
55076;SDS011;40971;44.702;11.030;2022-08-01T10:01:37;4.85;;;1.48;;
55076;SDS011;40971;44.702;11.030;2022-08-01T10:06:38;6.38;;;1.30;;
55076;SDS011;40971;44.702;11.030;2022-08-01T10:09:05;3.80;;;1.35;;
55076;SDS011;40971;44.702;11.030;2022-08-01T10:11:31;5.68;;;1.30;;
55076;SDS011;40971;44.702;11.030;2022-08-01T10:13:58;6.88;;;1.88;;
55076;SDS011;40971;44.702;11.030;2022-08-01T10:16:26;3.70;;;1.15;;
55076;SDS011;40971;44.702;11.030;2022-08-01T10:18:52;5.50;;;1.50;;
55076;SDS011;40971;44.702;11.030;2022-08-01T10:21:19;8.00;;;1.45;;
55076;SDS011;40971;44.702;11.030;2022-08-01T10:23:45;3.65;;;1.40;;
55076;SDS011;40971;44.702;11.030;2022-08-01T10:26:11;3.50;;;1.20;;
55076;SDS011;40971;44.702;11.030;2022-08-01T10:28:38;5.00;;;1.30;;
55076;SDS011;40971;44.702;11.030;2022-08-01T10:31:06;4.45;;;1.40;;
55076;SDS011;40971;44.702;11.030;2022-08-01T10:33:33;5.82;;;1.48;;
55076;SDS011;40971;44.702;11.030;2022-08-01T10:36:01;6.57;;;1.30;;
55076;SDS011;40971;44.702;11.030;2022-08-01T10:38:27;5.18;;;1.20;;
55076;SDS011;40971;44.702;11.030;2022-08-01T10:40:53;4.47;;;1.30;;
55076;SDS011;40971;44.702;11.030;2022-08-01T10:43:22;4.00;;;1.15;;
55076;SDS011;40971;44.702;11.030;2022-08-01T10:45:47;4.28;;;1.00;;
55076;SDS011;40971;44.702;11.030;2022-08-01T10:48:18;4.57;;;1.23;;
55076;SDS011;40971;44.702;11.030;2022-08-01T10:51:03;13.57;;;1.30;;
55076;SDS011;40971;44.702;11.030;2022-08-01T10:53:30;3.67;;;1.10;;
55076;SDS011;40971;44.702;11.030;2022-08-01T10:58:29;3.13;;;1.13;;
55076;SDS011;40971;44.702;11.030;2022-08-01T11:03:38;3.53;;;1.00;;
55076;SDS011;40971;44.702;11.030;2022-08-01T11:06:04;6.75;;;1.33;;
55076;SDS011;40971;44.702;11.030;2022-08-01T11:08:30;3.03;;;1.10;;
55076;SDS011;40971;44.702;11.030;2022-08-01T11:11:02;2.53;;;1.00;;
55076;SDS011;40971;44.702;11.030;2022-08-01T11:16:32;8.60;;;1.08;;
55076;SDS011;40971;44.702;11.030;2022-08-01T11:18:59;5.93;;;1.40;;
55076;SDS011;40971;44.702;11.030;2022-08-01T11:29:42;3.10;;;1.08;;
55076;SDS011;40971;44.702;11.030;2022-08-01T11:32:23;11.27;;;1.10;;
55076;SDS011;40971;44.702;11.030;2022-08-01T11:34:52;5.60;;;1.25;;
55076;SDS011;40971;44.702;11.030;2022-08-01T11:37:27;4.82;;;1.20;;
55076;SDS011;40971;44.702;11.030;2022-08-01T11:45:51;5.72;;;1.20;;
55076;SDS011;40971;44.702;11.030;2022-08-01T11:48:20;4.13;;;1.05;;
55076;SDS011;40971;44.702;11.030;2022-08-01T11:50:47;4.20;;;1.20;;
55076;SDS011;40971;44.702;11.030;2022-08-01T11:53:14;2.50;;;1.00;;
55076;SDS011;40971;44.702;11.030;2022-08-01T11:55:46;3.33;;;1.00;;
55076;SDS011;40971;44.702;11.030;2022-08-01T11:58:20;3.85;;;1.00;;
55076;SDS011;40971;44.702;11.030;2022-08-01T12:00:54;5.40;;;1.27;;
55076;SDS011;40971;44.702;11.030;2022-08-01T12:03:24;4.97;;;1.27;;
55076;SDS011;40971;44.702;11.030;2022-08-01T12:05:52;2.95;;;1.10;;
55076;SDS011;40971;44.702;11.030;2022-08-01T12:08:28;2.75;;;0.80;;
55076;SDS011;40971;44.702;11.030;2022-08-01T12:10:58;7.80;;;1.35;;
55076;SDS011;40971;44.702;11.030;2022-08-01T12:13:24;8.77;;;2.15;;
55076;SDS011;40971;44.702;11.030;2022-08-01T12:15:50;3.42;;;1.30;;
55076;SDS011;40971;44.702;11.030;2022-08-01T12:18:15;3.42;;;1.20;;
55076;SDS011;40971;44.702;11.030;2022-08-01T12:20:42;8.07;;;1.27;;
55076;SDS011;40971;44.702;11.030;2022-08-01T12:23:10;2.97;;;0.95;;
55076;SDS011;40971;44.702;11.030;2022-08-01T12:25:38;2.88;;;1.00;;
55076;SDS011;40971;44.702;11.030;2022-08-01T12:28:06;6.22;;;1.15;;
55076;SDS011;40971;44.702;11.030;2022-08-01T12:30:34;4.03;;;1.00;;
55076;SDS011;40971;44.702;11.030;2022-08-01T12:33:00;4.05;;;1.00;;
55076;SDS011;40971;44.702;11.030;2022-08-01T12:35:28;2.20;;;0.98;;
55076;SDS011;40971;44.702;11.030;2022-08-01T12:37:55;7.55;;;1.23;;
55076;SDS011;40971;44.702;11.030;2022-08-01T12:40:27;3.15;;;0.93;;
55076;SDS011;40971;44.702;11.030;2022-08-01T12:42:54;6.93;;;1.15;;
55076;SDS011;40971;44.702;11.030;2022-08-01T12:45:27;3.28;;;1.13;;
55076;SDS011;40971;44.702;11.030;2022-08-01T12:47:56;4.68;;;1.27;;
55076;SDS011;40971;44.702;11.030;2022-08-01T12:50:25;3.83;;;1.20;;
55076;SDS011;40971;44.702;11.030;2022-08-01T12:52:55;3.38;;;0.75;;
55076;SDS011;40971;44.702;11.030;2022-08-01T12:55:23;2.63;;;1.00;;
55076;SDS011;40971;44.702;11.030;2022-08-01T12:58:06;4.03;;;1.10;;
55076;SDS011;40971;44.702;11.030;2022-08-01T13:00:34;2.95;;;1.00;;
55076;SDS011;40971;44.702;11.030;2022-08-01T13:03:03;3.60;;;0.98;;
55076;SDS011;40971;44.702;11.030;2022-08-01T13:08:11;4.13;;;1.00;;
55076;SDS011;40971;44.702;11.030;2022-08-01T13:10:38;4.28;;;1.10;;
55076;SDS011;40971;44.702;11.030;2022-08-01T13:13:03;3.88;;;1.20;;
55076;SDS011;40971;44.702;11.030;2022-08-01T13:15:30;4.20;;;1.05;;
55076;SDS011;40971;44.702;11.030;2022-08-01T13:17:57;4.50;;;1.30;;
55076;SDS011;40971;44.702;11.030;2022-08-01T13:20:29;3.08;;;1.17;;
55076;SDS011;40971;44.702;11.030;2022-08-01T13:23:09;1.90;;;0.70;;
55076;SDS011;40971;44.702;11.030;2022-08-01T13:25:46;3.10;;;1.00;;
55076;SDS011;40971;44.702;11.030;2022-08-01T13:28:24;3.53;;;1.00;;
55076;SDS011;40971;44.702;11.030;2022-08-01T13:31:01;2.40;;;0.90;;
55076;SDS011;40971;44.702;11.030;2022-08-01T13:33:41;3.78;;;1.13;;
55076;SDS011;40971;44.702;11.030;2022-08-01T13:36:11;2.17;;;0.80;;
55076;SDS011;40971;44.702;11.030;2022-08-01T13:38:37;3.47;;;1.08;;
55076;SDS011;40971;44.702;11.030;2022-08-01T13:41:21;3.67;;;0.95;;
55076;SDS011;40971;44.702;11.030;2022-08-01T13:43:47;2.85;;;0.90;;
55076;SDS011;40971;44.702;11.030;2022-08-01T13:46:12;4.28;;;1.23;;
55076;SDS011;40971;44.702;11.030;2022-08-01T13:48:38;5.10;;;1.10;;
55076;SDS011;40971;44.702;11.030;2022-08-01T13:51:03;4.35;;;1.15;;
55076;SDS011;40971;44.702;11.030;2022-08-01T13:53:29;4.85;;;1.33;;
55076;SDS011;40971;44.702;11.030;2022-08-01T13:55:54;9.88;;;1.65;;
55076;SDS011;40971;44.702;11.030;2022-08-01T13:58:20;9.80;;;1.40;;
55076;SDS011;40971;44.702;11.030;2022-08-01T14:00:45;2.97;;;0.95;;
55076;SDS011;40971;44.702;11.030;2022-08-01T14:03:11;2.35;;;1.05;;
55076;SDS011;40971;44.702;11.030;2022-08-01T14:05:37;4.60;;;1.02;;
55076;SDS011;40971;44.702;11.030;2022-08-01T14:08:03;2.75;;;0.93;;
55076;SDS011;40971;44.702;11.030;2022-08-01T14:10:29;2.45;;;0.85;;
55076;SDS011;40971;44.702;11.030;2022-08-01T14:12:57;2.55;;;0.98;;
55076;SDS011;40971;44.702;11.030;2022-08-01T14:15:23;3.03;;;1.05;;
55076;SDS011;40971;44.702;11.030;2022-08-01T14:17:50;2.83;;;1.00;;
55076;SDS011;40971;44.702;11.030;2022-08-01T14:20:15;5.45;;;1.02;;
55076;SDS011;40971;44.702;11.030;2022-08-01T14:22:44;1.92;;;0.70;;
55076;SDS011;40971;44.702;11.030;2022-08-01T14:25:10;1.90;;;0.80;;
55076;SDS011;40971;44.702;11.030;2022-08-01T14:27:36;3.28;;;0.80;;
55076;SDS011;40971;44.702;11.030;2022-08-01T14:30:02;3.33;;;0.93;;
55076;SDS011;40971;44.702;11.030;2022-08-01T14:32:28;3.67;;;1.00;;
55076;SDS011;40971;44.702;11.030;2022-08-01T14:34:54;2.13;;;0.90;;
55076;SDS011;40971;44.702;11.030;2022-08-01T14:37:19;3.13;;;0.88;;
55076;SDS011;40971;44.702;11.030;2022-08-01T14:39:45;5.18;;;1.40;;
55076;SDS011;40971;44.702;11.030;2022-08-01T14:42:10;2.10;;;0.60;;
55076;SDS011;40971;44.702;11.030;2022-08-01T14:44:35;2.85;;;0.95;;
55076;SDS011;40971;44.702;11.030;2022-08-01T14:47:02;4.97;;;0.82;;
55076;SDS011;40971;44.702;11.030;2022-08-01T14:49:27;2.92;;;0.80;;
55076;SDS011;40971;44.702;11.030;2022-08-01T14:51:53;3.88;;;1.02;;
55076;SDS011;40971;44.702;11.030;2022-08-01T14:54:18;2.50;;;0.77;;
55076;SDS011;40971;44.702;11.030;2022-08-01T14:56:44;3.95;;;0.80;;
55076;SDS011;40971;44.702;11.030;2022-08-01T14:59:09;1.45;;;0.60;;
55076;SDS011;40971;44.702;11.030;2022-08-01T15:01:35;2.55;;;0.70;;
55076;SDS011;40971;44.702;11.030;2022-08-01T15:04:00;3.22;;;0.95;;
55076;SDS011;40971;44.702;11.030;2022-08-01T15:06:25;3.85;;;1.10;;
55076;SDS011;40971;44.702;11.030;2022-08-01T15:08:51;10.02;;;1.00;;
55076;SDS011;40971;44.702;11.030;2022-08-01T15:11:16;3.33;;;0.88;;
55076;SDS011;40971;44.702;11.030;2022-08-01T15:13:42;5.13;;;1.20;;
55076;SDS011;40971;44.702;11.030;2022-08-01T15:16:07;3.72;;;0.80;;
55076;SDS011;40971;44.702;11.030;2022-08-01T15:18:33;5.55;;;0.77;;
55076;SDS011;40971;44.702;11.030;2022-08-01T15:20:58;3.55;;;0.90;;
55076;SDS011;40971;44.702;11.030;2022-08-01T15:23:23;2.72;;;0.80;;
55076;SDS011;40971;44.702;11.030;2022-08-01T15:25:49;3.08;;;1.02;;